CheckWX is a tool to help pilots better visualize weather data.  It is not intended as a substitute for an official pre-flight weather briefing.

10:00:18 UTC

KLAW METAR
Lawton-Fort Sill Regional Airport
Lawton, Oklahoma, USA
Current

1 hour ago

KLAW 070853Z AUTO 36005KT 10SM CLR 01/M02 A3035 RMK AO2 SLP281 T00111017 55001
Observed
Dec-7 @ 08:53 UTC
Wind
  • 360° at 5 KTS
Visibility
10 SM
Flight Rules
VFR
Cloud Levels
  • Clear skies
Temperature
C / 34°F
Dewpoint
-2°C / 28°F
Humidity
81%
Altimeter
30.35" Hg
Pressure
1027.82 hPa
Previous

2 hours ago

KLAW 070753Z AUTO 35005KT 10SM CLR 03/M01 A3034 RMK AO2 SLP278 T00281011
Observed
Dec-7 @ 07:53 UTC
Wind
  • 350° at 5 KTS
Visibility
10 SM
Flight Rules
VFR
Cloud Levels
  • Clear skies
Temperature
C / 37°F
Dewpoint
-1°C / 30°F
Humidity
75%
Altimeter
30.34" Hg
Pressure
1027.42 hPa
Previous

3 hours ago

KLAW 070653Z AUTO 01007KT 10SM CLR 03/M01 A3034 RMK AO2 SLP278 T00331006
Observed
Dec-7 @ 06:53 UTC
Wind
  • 010° at 7 KTS
Visibility
10 SM
Flight Rules
VFR
Cloud Levels
  • Clear skies
Temperature
C / 37°F
Dewpoint
-1°C / 30°F
Humidity
75%
Altimeter
30.34" Hg
Pressure
1027.42 hPa